Time;durP1;ratioP1;P1;durP2;ratioP2;P2;SDS_P1;SDS_P2;PMS_P1;PMS_P2;Temp;Humidity;BMP_temperature;BMP_pressure;BME280_temperature;BME280_humidity;BME280_pressure;Samples;Min_cycle;Max_cycle;Signal;HPM_P1;HPM_P2
2022/01/31 00:00:06;;;;;;;4.93;2.03;;;8.60;99.90;;;;;;5046687;28;20619;-69
2022/01/31 00:02:33;;;;;;;5.67;2.00;;;8.60;99.90;;;;;;5046182;28;20247;-69
2022/01/31 00:04:59;;;;;;;5.67;2.40;;;8.60;99.90;;;;;;5028283;28;20192;-68
2022/01/31 00:07:25;;;;;;;7.27;2.37;;;8.60;99.90;;;;;;5027252;28;20659;-69
2022/01/31 00:09:51;;;;;;;4.10;2.10;;;8.60;99.90;;;;;;5047377;28;20191;-68
2022/01/31 00:12:19;;;;;;;4.23;1.90;;;8.60;99.90;;;;;;5047832;28;20191;-68
2022/01/31 00:14:49;;;;;;;3.80;2.30;;;8.60;99.90;;;;;;5047714;28;20206;-69
2022/01/31 00:17:17;;;;;;;8.07;2.30;;;8.50;99.90;;;;;;5046213;28;20283;-67
2022/01/31 00:19:45;;;;;;;6.77;2.40;;;8.50;99.90;;;;;;5028585;28;20279;-69
2022/01/31 00:22:14;;;;;;;10.87;2.67;;;8.50;99.90;;;;;;5029282;28;20959;-69
2022/01/31 00:24:40;;;;;;;5.67;2.40;;;8.50;99.90;;;;;;5030508;28;20183;-70
2022/01/31 00:27:09;;;;;;;7.57;2.40;;;8.60;99.90;;;;;;5047006;28;20298;-69
2022/01/31 00:29:35;;;;;;;4.67;2.37;;;8.60;99.90;;;;;;5029226;28;20194;-69
2022/01/31 00:32:02;;;;;;;5.93;2.17;;;8.60;99.90;;;;;;5048688;28;20192;-69
2022/01/31 00:34:28;;;;;;;8.47;2.60;;;8.70;99.90;;;;;;5029822;28;20195;-69
2022/01/31 00:36:55;;;;;;;7.00;2.33;;;8.70;99.90;;;;;;5044918;28;20927;-69
2022/01/31 00:39:21;;;;;;;6.63;1.97;;;8.70;99.90;;;;;;5047444;28;20195;-69
2022/01/31 00:41:47;;;;;;;6.57;2.30;;;8.60;99.90;;;;;;5047868;28;20199;-69
2022/01/31 00:44:28;;;;;;;6.50;2.43;;;8.60;99.90;;;;;;5029434;28;20188;-69
2022/01/31 00:46:59;;;;;;;6.03;2.10;;;8.70;99.90;;;;;;5029008;28;20905;-68
2022/01/31 00:52:00;;;;;;;4.83;2.30;;;8.70;99.90;;;;;;5047472;28;20195;-69
2022/01/31 00:54:27;;;;;;;6.37;2.00;;;8.70;99.90;;;;;;5046442;28;20203;-69
2022/01/31 00:56:53;;;;;;;8.83;2.40;;;8.80;99.90;;;;;;5046306;28;20210;-69
2022/01/31 00:59:20;;;;;;;4.07;2.13;;;8.80;99.90;;;;;;5047671;28;20234;-68
2022/01/31 01:01:47;;;;;;;4.30;2.30;;;8.70;99.90;;;;;;5047595;28;20282;-68
2022/01/31 01:04:13;;;;;;;10.47;2.90;;;8.50;99.90;;;;;;5044924;28;20698;-69
2022/01/31 01:06:41;;;;;;;3.73;2.40;;;8.50;99.90;;;;;;5046800;28;20233;-68
2022/01/31 01:09:08;;;;;;;11.40;2.73;;;8.50;99.90;;;;;;5046934;28;20188;-69
2022/01/31 01:11:35;;;;;;;5.83;2.80;;;8.40;99.90;;;;;;5046423;28;20179;-68
2022/01/31 01:14:02;;;;;;;3.87;2.60;;;8.40;99.90;;;;;;5045700;28;20263;-70
2022/01/31 01:16:28;;;;;;;7.33;2.63;;;8.40;99.90;;;;;;5047447;28;20195;-69
2022/01/31 01:18:54;;;;;;;4.37;2.47;;;8.30;99.90;;;;;;5044192;28;20628;-70
2022/01/31 01:21:20;;;;;;;4.93;2.30;;;8.30;99.90;;;;;;5046609;28;20195;-68
2022/01/31 01:23:46;;;;;;;8.67;2.20;;;8.30;99.90;;;;;;5044574;28;20653;-68
2022/01/31 01:26:13;;;;;;;3.17;1.97;;;8.30;99.90;;;;;;5028859;28;20187;-68
2022/01/31 01:28:39;;;;;;;4.83;2.30;;;8.30;99.90;;;;;;5058769;28;20191;-68
2022/01/31 01:31:05;;;;;;;2.80;1.73;;;8.30;99.90;;;;;;5043273;28;20214;-70
2022/01/31 01:33:38;;;;;;;8.80;2.07;;;8.20;99.90;;;;;;5044008;28;20192;-69
2022/01/31 01:36:06;;;;;;;7.93;1.90;;;8.20;99.90;;;;;;5030736;28;20647;-69
2022/01/31 01:38:33;;;;;;;4.33;1.90;;;8.20;99.90;;;;;;5045725;28;20596;-70
2022/01/31 01:41:00;;;;;;;4.10;2.03;;;8.10;99.90;;;;;;5028949;28;20526;-69
2022/01/31 01:43:30;;;;;;;2.87;1.70;;;8.10;99.90;;;;;;5044647;28;20772;-69
2022/01/31 01:45:59;;;;;;;2.07;1.70;;;8.10;99.90;;;;;;5029624;28;20271;-69
2022/01/31 01:48:25;;;;;;;4.80;2.63;;;8.10;99.90;;;;;;5047843;28;20202;-69
2022/01/31 01:50:54;;;;;;;3.90;1.80;;;8.00;99.90;;;;;;5048508;28;20202;-68
2022/01/31 01:53:20;;;;;;;5.23;2.00;;;8.00;99.90;;;;;;5011343;28;20285;-69
2022/01/31 01:55:48;;;;;;;3.47;2.07;;;8.00;99.90;;;;;;5064166;28;20191;-68
2022/01/31 01:58:16;;;;;;;3.10;1.83;;;7.90;99.90;;;;;;5052987;28;20565;-69
2022/01/31 02:00:50;;;;;;;3.40;1.90;;;7.90;99.90;;;;;;5045351;28;20199;-69
2022/01/31 02:03:18;;;;;;;3.87;1.80;;;7.80;99.90;;;;;;5044866;28;20229;-70
2022/01/31 02:05:45;;;;;;;4.77;2.00;;;7.70;99.90;;;;;;5032515;28;20219;-69
2022/01/31 02:08:14;;;;;;;2.80;2.17;;;7.70;99.90;;;;;;5027497;28;20193;-70
2022/01/31 02:10:41;;;;;;;4.27;2.40;;;7.70;99.90;;;;;;5027480;28;20187;-69
2022/01/31 02:13:10;;;;;;;3.30;2.20;;;7.70;99.90;;;;;;5044135;28;20301;-69
2022/01/31 02:15:39;;;;;;;5.43;2.50;;;7.60;99.90;;;;;;5027500;28;20195;-69
2022/01/31 02:18:06;;;;;;;6.87;2.37;;;7.50;99.90;;;;;;5045690;28;20218;-68
2022/01/31 02:20:42;;;;;;;5.97;2.70;;;7.40;99.90;;;;;;5025621;28;20612;-70
2022/01/31 02:23:13;;;;;;;3.53;2.50;;;7.30;99.90;;;;;;5046716;28;20302;-68
2022/01/31 02:26:01;;;;;;;4.27;2.83;;;7.20;99.90;;;;;;5045510;28;20184;-70
2022/01/31 02:28:30;;;;;;;2.80;2.20;;;7.20;99.90;;;;;;5010691;28;20196;-68
2022/01/31 02:30:58;;;;;;;2.77;1.90;;;7.20;99.90;;;;;;5030542;28;20333;-69
2022/01/31 02:33:25;;;;;;;3.53;1.90;;;7.10;99.90;;;;;;5027875;28;20203;-69
2022/01/31 02:36:10;;;;;;;2.93;2.13;;;7.10;99.90;;;;;;5044160;28;20302;-68
2022/01/31 02:38:37;;;;;;;4.87;1.80;;;7.00;99.90;;;;;;5044834;28;20761;-68
2022/01/31 02:41:03;;;;;;;1.90;1.70;;;7.10;99.90;;;;;;5025942;28;20199;-69
2022/01/31 02:43:33;;;;;;;1.57;1.30;;;7.10;99.90;;;;;;5029880;28;20210;-70
2022/01/31 02:46:01;;;;;;;3.47;1.50;;;7.00;99.90;;;;;;5045690;28;20187;-68
2022/01/31 02:48:30;;;;;;;1.73;1.47;;;7.00;99.90;;;;;;5034520;28;20199;-70
2022/01/31 02:50:56;;;;;;;2.93;1.60;;;7.00;99.90;;;;;;5045464;28;20193;-69
2022/01/31 02:53:29;;;;;;;1.83;1.30;;;7.00;99.90;;;;;;5026373;28;20192;-69
2022/01/31 02:56:01;;;;;;;1.47;1.37;;;7.00;99.90;;;;;;5046183;28;20290;-68
2022/01/31 02:58:29;;;;;;;1.60;1.33;;;7.10;99.90;;;;;;5044118;28;20199;-69
2022/01/31 03:00:58;;;;;;;2.73;1.40;;;7.10;99.90;;;;;;5045458;28;20207;-70
2022/01/31 03:03:25;;;;;;;1.33;1.23;;;7.20;99.90;;;;;;5032352;28;20218;-70
2022/01/31 03:05:52;;;;;;;2.70;1.27;;;7.30;99.90;;;;;;5059108;28;20195;-69
2022/01/31 03:08:19;;;;;;;2.20;1.40;;;7.30;99.90;;;;;;5024996;28;20184;-70
2022/01/31 03:10:45;;;;;;;1.67;1.03;;;7.30;99.90;;;;;;5047320;28;20290;-68
2022/01/31 03:13:11;;;;;;;1.50;1.40;;;7.30;99.90;;;;;;5057390;28;20206;-70
2022/01/31 03:15:37;;;;;;;1.77;1.40;;;7.20;99.90;;;;;;5013860;28;20275;-69
2022/01/31 03:18:05;;;;;;;3.97;1.77;;;7.20;99.90;;;;;;5047554;28;20202;-69
2022/01/31 03:20:31;;;;;;;4.50;1.50;;;7.20;99.90;;;;;;5049290;28;20233;-69
2022/01/31 03:22:58;;;;;;;2.90;1.50;;;7.30;99.90;;;;;;5049223;28;20238;-70
2022/01/31 03:25:24;;;;;;;2.43;1.43;;;7.20;99.90;;;;;;5047255;28;20704;-69
2022/01/31 03:27:50;;;;;;;3.00;1.40;;;7.20;99.90;;;;;;5030025;28;20222;-69
2022/01/31 03:30:21;;;;;;;3.07;1.50;;;7.20;99.90;;;;;;5047392;28;20183;-69
2022/01/31 03:32:48;;;;;;;2.37;1.40;;;7.30;99.90;;;;;;5048286;28;20196;-69
2022/01/31 03:35:16;;;;;;;1.57;1.47;;;7.30;99.90;;;;;;5052364;28;20242;-70
2022/01/31 03:37:44;;;;;;;2.30;1.70;;;7.30;99.90;;;;;;5023304;28;20221;-69
2022/01/31 03:40:11;;;;;;;2.27;1.67;;;7.30;99.90;;;;;;5011148;28;20242;-70
2022/01/31 03:42:38;;;;;;;1.43;1.30;;;7.30;99.90;;;;;;5029651;28;20218;-70
2022/01/31 03:45:09;;;;;;;5.30;1.60;;;7.30;99.90;;;;;;5048314;28;20277;-68
2022/01/31 03:47:43;;;;;;;3.70;1.60;;;7.30;99.90;;;;;;5017235;28;20210;-70
2022/01/31 03:50:11;;;;;;;3.60;1.80;;;7.30;99.90;;;;;;5030456;28;20270;-69
2022/01/31 03:52:37;;;;;;;2.07;1.70;;;7.30;99.90;;;;;;5030584;28;20226;-69
2022/01/31 03:55:05;;;;;;;2.17;1.70;;;7.30;99.90;;;;;;5048728;28;20196;-69
2022/01/31 03:57:33;;;;;;;2.93;1.70;;;7.30;99.90;;;;;;5047998;28;20180;-69
2022/01/31 04:00:00;;;;;;;3.40;1.90;;;7.30;99.90;;;;;;5060240;28;20216;-69
2022/01/31 04:02:27;;;;;;;2.27;1.90;;;7.30;99.90;;;;;;5061209;28;20313;-69
2022/01/31 04:04:53;;;;;;;2.80;2.10;;;7.30;99.90;;;;;;5014368;28;20249;-69
2022/01/31 04:07:19;;;;;;;2.60;2.10;;;7.30;99.90;;;;;;5056203;28;20191;-69
2022/01/31 04:09:45;;;;;;;5.57;2.57;;;7.30;99.90;;;;;;5047281;28;20214;-69
2022/01/31 04:12:11;;;;;;;5.23;2.20;;;7.40;99.90;;;;;;5038186;28;20286;-69
2022/01/31 04:14:38;;;;;;;4.10;2.40;;;7.40;99.90;;;;;;5030239;28;20329;-70
2022/01/31 04:17:08;;;;;;;4.30;2.40;;;7.30;99.90;;;;;;5030152;28;20266;-70
2022/01/31 04:19:34;;;;;;;4.57;2.60;;;7.40;99.90;;;;;;5027590;28;20180;-69
2022/01/31 04:22:00;;;;;;;3.83;2.30;;;7.40;99.90;;;;;;5028768;28;20207;-69
2022/01/31 04:24:32;;;;;;;3.30;2.50;;;7.40;99.90;;;;;;5056847;28;20340;-70
2022/01/31 04:27:05;;;;;;;3.03;2.27;;;7.40;99.90;;;;;;5046765;28;20187;-68
2022/01/31 04:29:37;;;;;;;2.77;2.30;;;7.40;99.90;;;;;;5048210;28;20321;-69
2022/01/31 04:32:05;;;;;;;11.23;6.73;;;7.40;99.90;;;;;;5037915;28;20282;-69
2022/01/31 04:34:31;;;;;;;6.37;3.10;;;7.30;99.90;;;;;;5045131;28;20246;-69
2022/01/31 04:37:01;;;;;;;6.50;4.90;;;7.30;99.90;;;;;;5032619;28;20797;-68
2022/01/31 04:39:29;;;;;;;7.93;5.23;;;7.30;99.90;;;;;;5045698;28;20282;-69
2022/01/31 04:41:56;;;;;;;6.43;3.37;;;7.30;99.90;;;;;;5054011;28;20244;-69
2022/01/31 04:44:22;;;;;;;7.00;3.17;;;7.30;99.90;;;;;;5051212;28;20744;-69
2022/01/31 04:46:49;;;;;;;13.73;9.57;;;7.30;99.90;;;;;;5011242;28;20676;-69
2022/01/31 04:49:16;;;;;;;15.03;9.57;;;7.30;99.90;;;;;;5046577;28;20188;-69
2022/01/31 04:51:43;;;;;;;14.73;5.67;;;7.30;99.90;;;;;;5028099;28;20880;-68
2022/01/31 04:54:10;;;;;;;5.13;3.53;;;7.30;99.90;;;;;;5043349;28;20494;-69
2022/01/31 04:56:40;;;;;;;5.53;2.50;;;7.20;99.90;;;;;;5044515;28;20197;-69
2022/01/31 04:59:06;;;;;;;6.03;2.23;;;7.20;99.90;;;;;;5046370;28;20270;-70
2022/01/31 05:01:34;;;;;;;6.13;2.40;;;7.20;99.90;;;;;;5049534;28;20189;-68
2022/01/31 05:04:00;;;;;;;7.77;2.70;;;7.20;99.90;;;;;;5046680;28;20264;-69
2022/01/31 05:06:32;;;;;;;3.17;2.30;;;7.20;99.90;;;;;;5046191;28;20187;-70
2022/01/31 05:08:59;;;;;;;3.80;2.20;;;7.20;99.90;;;;;;5028279;28;20209;-69
2022/01/31 05:11:25;;;;;;;3.63;2.23;;;7.20;99.90;;;;;;5050775;28;20206;-69
2022/01/31 05:13:51;;;;;;;4.60;2.37;;;7.20;99.90;;;;;;5049324;28;20264;-70
2022/01/31 05:16:18;;;;;;;7.17;2.10;;;7.20;99.90;;;;;;5064041;28;20175;-68
2022/01/31 05:18:44;;;;;;;3.23;2.20;;;7.20;99.90;;;;;;5029882;28;20201;-69
2022/01/31 05:21:11;;;;;;;2.47;2.27;;;7.20;99.90;;;;;;5045013;28;20215;-69
2022/01/31 05:23:37;;;;;;;3.83;2.10;;;7.20;99.90;;;;;;5046753;28;20298;-69
2022/01/31 05:26:04;;;;;;;5.43;2.17;;;7.30;99.90;;;;;;5047524;28;20207;-69
2022/01/31 05:28:30;;;;;;;5.73;2.30;;;7.30;99.90;;;;;;5028575;28;20237;-70
2022/01/31 05:31:00;;;;;;;4.53;2.40;;;7.40;99.90;;;;;;5045753;28;20960;-69
2022/01/31 05:33:27;;;;;;;6.67;2.50;;;7.40;99.90;;;;;;5034833;28;20253;-68
2022/01/31 05:35:54;;;;;;;3.27;2.23;;;7.40;99.90;;;;;;5049160;28;20191;-69
2022/01/31 05:38:21;;;;;;;6.10;2.30;;;7.50;99.90;;;;;;5064154;28;20206;-69
2022/01/31 05:40:47;;;;;;;2.73;2.00;;;7.50;99.90;;;;;;5046404;28;20743;-68
2022/01/31 05:43:13;;;;;;;3.97;2.20;;;7.50;99.90;;;;;;5046679;28;20233;-69
2022/01/31 05:45:39;;;;;;;3.47;2.13;;;7.50;99.90;;;;;;5032823;28;20190;-69
2022/01/31 05:48:06;;;;;;;6.27;2.30;;;7.50;99.90;;;;;;5060752;28;20192;-69
2022/01/31 05:50:32;;;;;;;3.13;2.07;;;7.50;99.90;;;;;;5047070;28;20210;-70
2022/01/31 05:52:58;;;;;;;4.87;2.17;;;7.50;99.90;;;;;;5045031;28;20187;-69
2022/01/31 05:55:25;;;;;;;5.73;2.10;;;7.60;99.90;;;;;;5028899;28;20564;-70
2022/01/31 05:57:51;;;;;;;6.40;2.30;;;7.60;99.90;;;;;;5049696;28;20702;-70
2022/01/31 06:00:17;;;;;;;6.20;2.30;;;7.60;99.90;;;;;;5066626;28;20193;-68
2022/01/31 06:02:43;;;;;;;7.00;2.10;;;7.60;99.90;;;;;;5043050;28;20214;-68
2022/01/31 06:05:10;;;;;;;3.43;2.10;;;7.70;99.90;;;;;;5026222;28;20274;-69
2022/01/31 06:07:36;;;;;;;5.70;2.07;;;7.70;99.90;;;;;;5044032;28;20176;-69
2022/01/31 06:10:03;;;;;;;5.70;2.23;;;7.80;99.90;;;;;;5056031;28;20263;-69
2022/01/31 06:12:30;;;;;;;3.60;2.10;;;7.90;99.90;;;;;;5043125;28;20202;-69
2022/01/31 06:14:56;;;;;;;3.30;1.90;;;8.00;99.90;;;;;;5010249;28;20187;-69
2022/01/31 06:17:23;;;;;;;5.13;2.13;;;8.10;99.90;;;;;;5022435;28;20183;-69
2022/01/31 06:19:49;;;;;;;4.83;1.83;;;8.20;99.90;;;;;;5064433;28;20248;-69
2022/01/31 06:22:15;;;;;;;5.40;2.30;;;8.20;99.90;;;;;;5063779;28;20213;-69
2022/01/31 06:24:41;;;;;;;2.77;2.00;;;8.30;99.90;;;;;;5026129;28;20207;-69
2022/01/31 06:27:08;;;;;;;6.17;2.03;;;8.30;99.90;;;;;;5027595;28;20186;-69
2022/01/31 06:29:34;;;;;;;6.70;2.13;;;8.40;99.90;;;;;;5046368;28;20867;-70
2022/01/31 06:32:00;;;;;;;5.90;2.00;;;8.40;99.90;;;;;;5042825;28;20275;-68
2022/01/31 06:34:26;;;;;;;6.77;2.03;;;8.40;99.90;;;;;;5022310;28;20324;-69
2022/01/31 06:36:53;;;;;;;7.33;2.40;;;8.50;99.90;;;;;;5044656;28;20556;-67
2022/01/31 06:39:19;;;;;;;9.87;2.00;;;8.60;99.90;;;;;;5045118;28;20564;-68
2022/01/31 06:41:45;;;;;;;6.27;2.27;;;8.60;99.90;;;;;;5026175;28;20191;-68
2022/01/31 06:44:11;;;;;;;4.80;1.77;;;8.70;99.90;;;;;;5047871;28;20215;-69
2022/01/31 06:46:38;;;;;;;7.10;1.97;;;8.70;99.90;;;;;;5051115;28;20206;-69
2022/01/31 06:49:04;;;;;;;6.67;2.10;;;8.80;99.90;;;;;;5033468;28;21329;-70
2022/01/31 06:51:30;;;;;;;11.43;2.30;;;8.80;99.90;;;;;;5035928;28;20236;-70
2022/01/31 06:53:59;;;;;;;6.27;1.97;;;8.90;99.90;;;;;;5028292;28;20191;-69
2022/01/31 06:56:29;;;;;;;7.63;2.10;;;8.90;99.90;;;;;;5052074;28;20698;-69
2022/01/31 06:58:57;;;;;;;7.60;1.90;;;9.00;99.90;;;;;;5033228;28;20187;-69
2022/01/31 07:01:25;;;;;;;4.83;2.13;;;9.10;99.90;;;;;;5018327;28;20671;-69
2022/01/31 07:03:54;;;;;;;12.03;2.10;;;9.10;99.90;;;;;;5049757;28;20222;-69
2022/01/31 07:06:21;;;;;;;8.30;2.17;;;9.10;99.90;;;;;;5052221;28;20695;-69
2022/01/31 07:08:48;;;;;;;5.87;2.03;;;9.20;99.90;;;;;;5051697;28;20175;-70
2022/01/31 07:11:20;;;;;;;6.97;1.80;;;9.20;99.90;;;;;;5046295;28;20606;-69
2022/01/31 07:13:48;;;;;;;5.73;1.90;;;9.30;99.90;;;;;;5048883;28;20221;-70
2022/01/31 07:16:17;;;;;;;10.87;2.10;;;9.40;99.90;;;;;;5044899;28;20296;-70
2022/01/31 07:18:44;;;;;;;8.33;1.80;;;9.50;99.90;;;;;;5051258;28;20183;-69
2022/01/31 07:21:13;;;;;;;8.27;2.03;;;9.50;99.90;;;;;;5049828;28;20561;-69
2022/01/31 07:26:18;;;;;;;7.20;2.00;;;9.60;99.90;;;;;;5049150;28;20270;-69
2022/01/31 07:28:45;;;;;;;7.47;1.90;;;9.50;99.90;;;;;;5050040;28;21001;-69
2022/01/31 07:31:11;;;;;;;5.73;1.83;;;9.60;99.90;;;;;;5051352;28;20333;-68
2022/01/31 07:33:42;;;;;;;6.30;2.00;;;9.70;99.90;;;;;;5016765;28;20188;-69
2022/01/31 07:36:09;;;;;;;7.53;2.30;;;9.70;99.90;;;;;;5051193;28;20746;-70
2022/01/31 07:38:35;;;;;;;5.97;2.03;;;9.80;99.90;;;;;;5048618;28;20210;-69
2022/01/31 07:41:02;;;;;;;5.70;2.07;;;9.80;99.90;;;;;;5053162;28;20896;-69
2022/01/31 07:43:30;;;;;;;6.83;2.27;;;9.70;99.90;;;;;;5065249;28;20690;-69
2022/01/31 07:45:57;;;;;;;5.47;1.90;;;9.70;99.90;;;;;;5053635;28;20690;-70
2022/01/31 07:48:26;;;;;;;6.40;2.13;;;9.70;99.90;;;;;;5052837;28;20909;-69
2022/01/31 07:50:52;;;;;;;5.53;1.90;;;9.80;99.90;;;;;;5033143;28;20742;-68
2022/01/31 07:53:19;;;;;;;6.20;1.93;;;9.80;99.90;;;;;;5030397;28;20270;-69
2022/01/31 07:55:46;;;;;;;6.70;2.07;;;9.90;99.90;;;;;;5030049;28;20568;-69
2022/01/31 07:58:12;;;;;;;4.80;1.90;;;9.90;99.90;;;;;;5028859;28;20299;-68
2022/01/31 08:00:38;;;;;;;6.87;2.10;;;10.00;99.90;;;;;;5049853;28;20199;-69
2022/01/31 08:03:04;;;;;;;7.53;1.90;;;10.10;99.90;;;;;;5029879;28;20218;-69
2022/01/31 08:05:31;;;;;;;5.30;1.90;;;10.10;99.90;;;;;;5043210;28;20201;-69
2022/01/31 08:07:57;;;;;;;5.77;1.83;;;10.10;99.90;;;;;;5009702;28;20195;-69
2022/01/31 08:10:23;;;;;;;13.00;2.17;;;10.20;99.90;;;;;;5056759;28;20674;-70
2022/01/31 08:12:50;;;;;;;4.53;1.80;;;10.20;99.90;;;;;;5032194;28;20223;-69
2022/01/31 08:15:24;;;;;;;9.03;2.60;;;10.30;99.90;;;;;;5041660;28;20191;-69
2022/01/31 08:17:50;;;;;;;7.77;2.00;;;10.40;99.90;;;;;;5041652;28;20190;-70
2022/01/31 08:20:17;;;;;;;11.10;2.10;;;10.40;99.90;;;;;;5045492;28;20279;-70
2022/01/31 08:22:43;;;;;;;8.97;1.83;;;10.40;99.90;;;;;;5044306;28;20212;-69
2022/01/31 08:25:14;;;;;;;8.73;1.87;;;10.50;99.90;;;;;;5032000;28;20192;-70
2022/01/31 08:27:48;;;;;;;13.83;2.60;;;10.60;99.90;;;;;;5043976;28;20211;-70
2022/01/31 08:30:21;;;;;;;8.70;2.23;;;10.70;99.90;;;;;;5029447;28;20842;-70
2022/01/31 08:32:58;;;;;;;9.20;1.90;;;10.70;99.90;;;;;;5048036;28;20199;-70
2022/01/31 08:38:11;;;;;;;5.80;1.93;;;10.80;99.90;;;;;;5045108;28;20876;-69
2022/01/31 08:40:39;;;;;;;10.00;2.20;;;10.80;99.90;;;;;;5047735;28;20940;-69
2022/01/31 08:43:06;;;;;;;9.70;2.33;;;10.90;99.90;;;;;;5036044;28;20258;-69
2022/01/31 08:45:36;;;;;;;8.53;2.17;;;10.90;99.90;;;;;;5026215;28;20188;-68
2022/01/31 08:48:04;;;;;;;6.07;2.07;;;10.80;99.90;;;;;;5040086;28;20211;-70
2022/01/31 08:50:31;;;;;;;7.80;2.40;;;10.70;99.90;;;;;;5047027;28;20265;-70
2022/01/31 08:52:58;;;;;;;5.53;1.80;;;10.60;99.90;;;;;;5022374;28;20211;-69
2022/01/31 08:55:25;;;;;;;9.07;1.90;;;10.70;99.90;;;;;;5036593;28;20188;-69
2022/01/31 08:57:55;;;;;;;12.23;1.90;;;10.70;99.90;;;;;;5028238;28;20228;-69
2022/01/31 09:00:33;;;;;;;5.40;1.80;;;10.80;99.90;;;;;;5029242;28;20194;-69
2022/01/31 09:03:18;;;;;;;11.30;2.43;;;10.80;99.90;;;;;;5043534;28;20214;-68
2022/01/31 09:05:44;;;;;;;7.10;2.13;;;10.90;99.90;;;;;;5033849;28;20265;-70
2022/01/31 09:08:10;;;;;;;5.30;1.80;;;10.90;99.90;;;;;;5045214;28;20252;-68
2022/01/31 09:10:37;;;;;;;6.57;2.00;;;10.80;99.90;;;;;;5015622;28;20193;-69
2022/01/31 09:13:03;;;;;;;6.53;2.10;;;10.80;99.90;;;;;;5043527;28;20717;-69
2022/01/31 09:15:30;;;;;;;6.73;1.70;;;10.80;99.90;;;;;;5037414;28;20194;-69
2022/01/31 09:17:56;;;;;;;7.13;1.90;;;10.80;99.90;;;;;;5041865;28;20811;-69
2022/01/31 09:20:22;;;;;;;9.03;2.27;;;10.80;99.90;;;;;;5028762;28;20195;-70
2022/01/31 09:22:49;;;;;;;14.30;2.03;;;10.80;99.90;;;;;;5013000;28;20208;-69
2022/01/31 09:25:15;;;;;;;6.90;2.13;;;10.80;99.90;;;;;;5047075;28;20233;-69
2022/01/31 09:27:42;;;;;;;8.77;2.10;;;10.80;99.90;;;;;;5042116;28;20190;-68
2022/01/31 09:30:12;;;;;;;9.80;2.30;;;10.80;99.90;;;;;;5027784;28;20199;-69
2022/01/31 09:32:39;;;;;;;13.57;1.90;;;10.80;99.90;;;;;;5044629;28;20556;-69
2022/01/31 09:35:06;;;;;;;7.63;1.97;;;10.80;99.90;;;;;;5010700;28;20191;-69
2022/01/31 09:37:32;;;;;;;10.40;2.07;;;10.70;99.90;;;;;;5044791;28;20762;-69
2022/01/31 09:40:03;;;;;;;4.07;1.63;;;10.70;99.90;;;;;;5046456;28;20187;-69
2022/01/31 09:42:40;;;;;;;11.57;1.83;;;10.80;99.90;;;;;;5042290;28;20705;-69
2022/01/31 09:45:20;;;;;;;7.17;1.70;;;10.80;99.90;;;;;;5046429;28;20245;-69
2022/01/31 09:50:28;;;;;;;7.00;2.30;;;10.80;99.90;;;;;;5031846;28;20191;-69
2022/01/31 09:52:55;;;;;;;7.70;1.90;;;10.80;99.90;;;;;;5038681;28;20306;-69
2022/01/31 09:55:25;;;;;;;5.93;1.63;;;10.80;99.90;;;;;;5047887;28;20199;-69
2022/01/31 09:57:51;;;;;;;7.43;2.40;;;10.70;99.90;;;;;;5027949;28;20191;-69
2022/01/31 10:00:18;;;;;;;14.80;3.03;;;10.70;99.90;;;;;;5044088;28;20282;-69
2022/01/31 10:03:07;;;;;;;11.97;2.40;;;10.60;99.90;;;;;;5027673;28;20218;-68
2022/01/31 10:05:34;;;;;;;7.10;2.17;;;10.40;99.90;;;;;;5029080;28;20265;-69
2022/01/31 10:08:13;;;;;;;6.53;2.30;;;10.20;99.90;;;;;;5026899;28;20194;-69
2022/01/31 10:10:44;;;;;;;8.10;2.47;;;10.10;99.90;;;;;;5046020;28;20206;-69
2022/01/31 10:16:28;;;;;;;7.83;2.07;;;10.10;99.90;;;;;;5035814;28;20187;-69
2022/01/31 10:19:09;;;;;;;6.40;1.87;;;10.00;99.90;;;;;;5042571;28;20199;-69
2022/01/31 10:22:04;;;;;;;4.87;2.10;;;10.00;99.90;;;;;;5026598;28;20718;-69
2022/01/31 10:24:33;;;;;;;4.60;1.60;;;10.00;99.90;;;;;;5025405;28;20215;-69
2022/01/31 10:27:09;;;;;;;2.80;1.30;;;10.00;99.90;;;;;;5026720;28;20199;-69
2022/01/31 10:29:37;;;;;;;4.13;1.50;;;10.00;99.90;;;;;;5022244;28;20285;-69
2022/01/31 10:32:10;;;;;;;7.13;2.03;;;10.10;99.90;;;;;;5045278;28;20187;-70
2022/01/31 10:34:46;;;;;;;1.57;1.07;;;10.20;99.90;;;;;;5022581;28;20187;-69
2022/01/31 10:37:17;;;;;;;1.40;0.90;;;10.30;99.90;;;;;;5042470;28;20207;-69
2022/01/31 10:45:48;;;;;;;4.50;1.20;;;11.30;99.90;;;;;;5042053;28;20188;-69
2022/01/31 10:53:56;;;;;;;3.10;1.73;;;13.00;99.90;;;;;;5038651;28;20186;-70
2022/01/31 10:56:25;;;;;;;6.00;1.50;;;13.40;99.90;;;;;;5039355;28;20294;-69
2022/01/31 10:59:12;;;;;;;6.17;1.60;;;14.00;99.90;;;;;;5007386;28;20321;-69
2022/01/31 11:01:40;;;;;;;5.00;1.63;;;14.20;99.90;;;;;;5043657;28;20692;-67
2022/01/31 11:04:11;;;;;;;5.23;1.50;;;14.10;99.90;;;;;;5021009;28;20214;-69
2022/01/31 11:06:40;;;;;;;6.97;1.73;;;14.00;99.90;;;;;;5041641;28;20940;-70
2022/01/31 11:09:16;;;;;;;5.43;1.50;;;13.80;99.90;;;;;;5046193;28;20635;-69
2022/01/31 11:11:49;;;;;;;5.80;1.47;;;13.50;99.90;;;;;;5051414;28;20664;-69
2022/01/31 11:14:17;;;;;;;6.73;1.43;;;13.40;99.90;;;;;;5041053;28;20218;-69
2022/01/31 11:16:47;;;;;;;2.97;1.20;;;13.30;99.90;;;;;;5040384;28;20195;-69
2022/01/31 11:19:17;;;;;;;4.70;1.40;;;13.20;99.90;;;;;;5041666;28;20598;-69
2022/01/31 11:21:47;;;;;;;6.30;1.30;;;13.30;99.90;;;;;;5015865;28;20192;-69
2022/01/31 11:24:30;;;;;;;3.57;1.53;;;13.10;99.90;;;;;;5039675;28;20323;-69
2022/01/31 11:27:13;;;;;;;2.33;1.47;;;13.00;99.90;;;;;;5046417;28;20186;-69
2022/01/31 11:29:48;;;;;;;4.73;1.60;;;13.00;99.90;;;;;;5031529;28;20936;-69
2022/01/31 11:32:15;;;;;;;5.57;1.40;;;13.00;99.90;;;;;;5023835;28;20270;-69
2022/01/31 11:34:45;;;;;;;3.77;1.50;;;13.00;99.90;;;;;;5046152;28;20640;-70
2022/01/31 11:37:16;;;;;;;8.67;1.50;;;12.90;99.90;;;;;;5030653;28;20753;-70
2022/01/31 11:39:48;;;;;;;7.27;1.50;;;12.70;99.90;;;;;;5040272;28;20176;-69
2022/01/31 11:42:16;;;;;;;5.23;1.90;;;12.40;99.90;;;;;;5026664;28;20241;-70
2022/01/31 11:45:13;;;;;;;5.83;1.50;;;12.40;99.90;;;;;;5030597;28;20188;-69
2022/01/31 11:47:41;;;;;;;4.60;1.20;;;12.40;99.90;;;;;;5019311;28;20513;-69
2022/01/31 11:50:14;;;;;;;4.03;1.20;;;12.30;99.90;;;;;;5044154;28;20274;-69
2022/01/31 11:53:01;;;;;;;9.40;1.80;;;12.30;99.90;;;;;;5044996;28;20195;-70
2022/01/31 11:55:38;;;;;;;10.53;1.93;;;12.20;99.90;;;;;;5047111;28;20253;-69
2022/01/31 11:58:14;;;;;;;6.77;1.70;;;12.10;99.90;;;;;;5046723;28;20187;-70
2022/01/31 12:00:43;;;;;;;4.67;1.50;;;12.20;99.90;;;;;;5028813;28;20190;-69
2022/01/31 12:03:14;;;;;;;9.10;1.47;;;12.30;99.90;;;;;;5029213;28;20207;-69
2022/01/31 12:05:43;;;;;;;6.00;1.50;;;12.40;99.90;;;;;;5045988;28;20648;-70
2022/01/31 12:08:14;;;;;;;4.20;1.27;;;12.40;99.90;;;;;;5028117;28;20202;-69
2022/01/31 12:10:56;;;;;;;3.30;1.00;;;12.50;99.90;;;;;;5028524;28;20184;-70
2022/01/31 12:13:45;;;;;;;5.73;1.23;;;12.60;99.90;;;;;;5046101;28;20187;-70
2022/01/31 12:16:40;;;;;;;4.60;1.00;;;12.70;99.90;;;;;;5042951;28;20659;-70
2022/01/31 12:22:09;;;;;;;4.87;1.40;;;12.90;99.90;;;;;;5013962;28;20212;-69
2022/01/31 12:24:45;;;;;;;6.03;1.07;;;12.80;99.90;;;;;;5042799;28;20179;-69
2022/01/31 12:27:25;;;;;;;4.87;1.83;;;12.80;99.90;;;;;;5014243;28;20204;-70
2022/01/31 12:29:59;;;;;;;8.37;1.27;;;12.80;99.90;;;;;;5047023;28;20183;-70
2022/01/31 12:32:37;;;;;;;7.23;1.40;;;12.80;99.90;;;;;;5037463;28;20473;-70
2022/01/31 12:35:14;;;;;;;5.60;1.13;;;12.60;99.90;;;;;;5041651;28;20281;-69
2022/01/31 12:37:53;;;;;;;5.17;1.10;;;12.40;99.90;;;;;;5024708;28;20298;-69
2022/01/31 12:40:29;;;;;;;3.57;1.63;;;12.20;99.90;;;;;;5048592;28;20682;-69
2022/01/31 12:45:53;;;;;;;4.30;1.07;;;12.00;99.90;;;;;;5048773;28;20192;-70
2022/01/31 12:48:23;;;;;;;3.37;1.33;;;12.00;99.90;;;;;;5041623;28;20648;-69
2022/01/31 12:50:49;;;;;;;2.43;1.00;;;11.90;99.90;;;;;;5021585;28;20234;-69
2022/01/31 12:53:27;;;;;;;1.83;0.80;;;11.80;99.90;;;;;;5044330;28;20274;-70
2022/01/31 12:56:10;;;;;;;2.60;0.60;;;11.80;99.90;;;;;;5038614;28;20219;-70
2022/01/31 12:58:46;;;;;;;2.40;0.67;;;11.70;99.90;;;;;;5025059;28;20202;-69
2022/01/31 13:01:28;;;;;;;3.50;0.70;;;11.70;99.90;;;;;;5010837;28;20187;-69
2022/01/31 13:04:05;;;;;;;2.60;0.70;;;11.60;99.90;;;;;;5011270;28;20352;-70
2022/01/31 13:06:46;;;;;;;2.50;0.50;;;11.60;99.90;;;;;;5042979;28;20184;-69
2022/01/31 13:09:39;;;;;;;1.57;0.67;;;11.40;99.90;;;;;;5023050;28;20183;-71
2022/01/31 13:12:15;;;;;;;1.30;0.50;;;11.30;99.90;;;;;;5021527;28;20183;-69
2022/01/31 13:14:50;;;;;;;4.27;0.90;;;11.10;99.90;;;;;;5044253;28;20191;-69
2022/01/31 13:17:24;;;;;;;3.30;0.60;;;11.10;99.90;;;;;;5026430;28;20187;-69
2022/01/31 13:19:57;;;;;;;6.53;1.00;;;11.00;99.90;;;;;;5024082;28;20192;-69
2022/01/31 13:25:06;;;;;;;2.23;0.67;;;10.80;99.90;;;;;;5044688;28;20188;-70
2022/01/31 13:27:37;;;;;;;3.13;0.53;;;10.70;99.90;;;;;;5025993;28;20528;-69
2022/01/31 13:30:11;;;;;;;3.73;1.20;;;10.40;99.90;;;;;;5024695;28;20607;-70
2022/01/31 13:32:40;;;;;;;3.33;0.83;;;10.30;99.90;;;;;;5026288;28;20252;-69
2022/01/31 13:35:14;;;;;;;4.20;0.80;;;10.30;99.90;;;;;;5029866;28;20684;-69
2022/01/31 13:38:07;;;;;;;4.97;0.97;;;10.30;99.90;;;;;;5039125;28;20214;-69